»·PEaware :: N535EG L88-KSBP

N535EG :: L88-KSBP

FLIGHT INFORMATION

Flight Status: Arrived
Operator: Privately registered:
United States
More flights under this callsign
Pilot: Anonymous 17686 (17686)
Aircraft: CESSNA 182 SKYLANE
(C182)
More flights by this aircraft type
Origin: L88 New Cuyama
United States
Destination: KSBP San Luis Co Regl
United States
More flights between these airports :: More routes between these airports
Route: +
File this flight plan on PilotEdge
Remarks:
Altitude:
(Current/Filed)
8,500ft
Speed:
(Current/Filed)
120kts
Departed: 27-Dec-17 09:33 PM
Arrived: 27-Dec-17 10:11 PM
Distance/Time
Traveled:
50nm/0:38
Distance/Time
To Go:
Arrived

Flight Plot

Page will automatically refresh every two minutes.


Map Options




Map Legend


Flown Route
Filed Route
Departure Airport
Arrival Airport
Navaid (VOR, NDB)
Fix

Horizontal Profiles

Position Reports

Time Latitude Longitude Heading Altitude Ground
Speed
27-Dec-17 21:30 34.943770 -119.690932 92 2206ft 0kts
27-Dec-17 21:31 34.943770 -119.690930 92 2206ft 0kts
27-Dec-17 21:32 34.943770 -119.690929 92 2206ft 0kts
27-Dec-17 21:33 34.943770 -119.690927 92 2206ft 0kts
27-Dec-17 21:34 34.943770 -119.690926 92 2206ft 0kts
27-Dec-17 21:35 34.943770 -119.690925 92 2206ft 0kts
27-Dec-17 21:36 34.943640 -119.690838 188 2206ft 3kts
27-Dec-17 21:37 34.943289 -119.690943 201 2206ft 0kts
27-Dec-17 21:38 34.943115 -119.691038 205 2206ft 6kts
27-Dec-17 21:39 34.940092 -119.685786 113 2235ft 69kts
27-Dec-17 21:40 34.927818 -119.667132 183 2895ft 93kts
27-Dec-17 21:41 34.925549 -119.689682 296 3209ft 85kts
27-Dec-17 21:42 34.934922 -119.716306 291 3893ft 87kts
27-Dec-17 21:43 34.945020 -119.743535 292 4736ft 92kts
27-Dec-17 21:44 34.956375 -119.775666 293 5447ft 120kts
27-Dec-17 21:45 34.969498 -119.813544 293 6099ft 114kts
27-Dec-17 21:46 34.980859 -119.847307 293 6783ft 101kts
27-Dec-17 21:47 34.991145 -119.878686 293 7477ft 97kts
27-Dec-17 21:48 35.000699 -119.908747 293 8183ft 91kts
27-Dec-17 21:49 35.010786 -119.940163 294 8495ft 119kts
27-Dec-17 21:50 35.037618 -119.967431 325 8489ft 132kts
27-Dec-17 21:51 35.067295 -119.993602 325 8487ft 130kts
27-Dec-17 21:52 35.095200 -120.021533 311 8487ft 130kts
27-Dec-17 21:53 35.118694 -120.055377 312 8488ft 130kts
27-Dec-17 21:54 35.142947 -120.090465 312 8494ft 142kts
27-Dec-17 21:55 35.167848 -120.126461 309 8478ft 133kts
27-Dec-17 21:56 35.165467 -120.171338 261 8496ft 136kts
27-Dec-17 21:57 35.158140 -120.216783 261 8489ft 136kts
27-Dec-17 21:58 35.150755 -120.262371 261 8487ft 136kts
27-Dec-17 21:59 35.143644 -120.308181 271 8170ft 137kts
27-Dec-17 22:00 35.158265 -120.348499 299 7688ft 129kts
27-Dec-17 22:01 35.173656 -120.386173 298 7148ft 116kts
27-Dec-17 22:02 35.188538 -120.422152 299 6678ft 124kts
27-Dec-17 22:03 35.176873 -120.452758 218 6499ft 103kts
27-Dec-17 22:04 35.155896 -120.471653 217 6499ft 86kts
27-Dec-17 22:05 35.135603 -120.489855 217 6513ft 103kts
27-Dec-17 22:06 35.129922 -120.518583 277 6494ft 96kts
27-Dec-17 22:07 35.129426 -120.549710 271 6499ft 84kts
27-Dec-17 22:08 35.120125 -120.576480 234 6511ft 104kts
27-Dec-17 22:09 35.119225 -120.605550 343 6333ft 103kts
27-Dec-17 22:10 35.149638 -120.599403 12 5835ft 121kts
27-Dec-17 22:11 35.160168 -120.566801 111 4902ft 132kts
27-Dec-17 22:12 35.161899 -120.533014 3 2426ft 109kts
27-Dec-17 22:13 35.186519 -120.554812 312 1784ft 104kts
27-Dec-17 22:14 35.203421 -120.582713 305 1557ft 85kts
27-Dec-17 22:15 35.219051 -120.608758 304 850ft 91kts
27-Dec-17 22:16 35.233041 -120.633533 301 323ft 80kts
27-Dec-17 22:17 35.239763 -120.644178 35 215ft 0kts
27-Dec-17 22:18 35.240488 -120.644397 353 215ft 6kts
27-Dec-17 22:19 35.240627 -120.644468 302 215ft 0kts
27-Dec-17 22:20 35.240627 -120.644468 302 215ft 0kts
27-Dec-17 22:21 35.240627 -120.644468 302 215ft 0kts
27-Dec-17 22:22 35.240627 -120.644468 302 215ft 0kts
27-Dec-17 22:23 35.240627 -120.644468 302 215ft 0kts
27-Dec-17 22:24 35.240627 -120.644468 302 215ft 0kts
27-Dec-17 22:25 35.240627 -120.644468 302 215ft 0kts
27-Dec-17 22:26 35.240627 -120.644468 302 215ft 0kts
27-Dec-17 22:27 35.240627 -120.644468 302 215ft 0kts
27-Dec-17 22:28 35.240627 -120.644468 302 215ft 0kts
27-Dec-17 22:29 35.240627 -120.644468 302 215ft 0kts
27-Dec-17 22:30 35.240627 -120.644468 302 215ft 0kts
27-Dec-17 22:31 35.240627 -120.644468 302 215ft 0kts

Navigation Log

Ident Type
1. L88 Airport
2. KSBP Airport